sensor_id;sensor_type;location;lat;lon;timestamp;temperature;humidity
63317;DHT22;49822;41.468;13.560;2023-04-24T06:32:47;15.70;87.00
63317;DHT22;49822;41.468;13.560;2023-04-24T06:35:15;15.70;87.10
63317;DHT22;49822;41.468;13.560;2023-04-24T06:37:42;15.60;87.30
63317;DHT22;49822;41.468;13.560;2023-04-24T06:40:09;15.20;89.50
63317;DHT22;49822;41.468;13.560;2023-04-24T06:42:35;15.10;90.10
63317;DHT22;49822;41.468;13.560;2023-04-24T06:45:03;15.10;90.40
63317;DHT22;49822;41.468;13.560;2023-04-24T06:47:32;15.20;89.30
63317;DHT22;49822;41.468;13.560;2023-04-24T06:49:58;15.60;88.60
63317;DHT22;49822;41.468;13.560;2023-04-24T06:52:24;15.80;86.80
63317;DHT22;49822;41.468;13.560;2023-04-24T06:54:50;16.10;87.10
63317;DHT22;49822;41.468;13.560;2023-04-24T06:57:17;16.30;85.70
63317;DHT22;49822;41.468;13.560;2023-04-24T06:59:54;16.40;86.40
63317;DHT22;49822;41.468;13.560;2023-04-24T07:02:41;16.60;85.40
63317;DHT22;49822;41.468;13.560;2023-04-24T07:05:37;16.80;84.80
63317;DHT22;49822;41.468;13.560;2023-04-24T07:08:06;16.80;84.80
63317;DHT22;49822;41.468;13.560;2023-04-24T07:10:32;16.80;84.90
63317;DHT22;49822;41.468;13.560;2023-04-24T07:13:01;16.80;85.20
63317;DHT22;49822;41.468;13.560;2023-04-24T07:15:28;16.50;85.50
63317;DHT22;49822;41.468;13.560;2023-04-24T07:17:55;16.50;85.80
63317;DHT22;49822;41.468;13.560;2023-04-24T07:20:21;16.40;86.30
63317;DHT22;49822;41.468;13.560;2023-04-24T07:22:48;16.20;86.70
63317;DHT22;49822;41.468;13.560;2023-04-24T07:25:14;16.20;87.10
63317;DHT22;49822;41.468;13.560;2023-04-24T07:27:41;16.20;87.40
63317;DHT22;49822;41.468;13.560;2023-04-24T07:30:07;16.20;88.00
63317;DHT22;49822;41.468;13.560;2023-04-24T07:32:34;16.20;88.00
63317;DHT22;49822;41.468;13.560;2023-04-24T07:35:00;16.20;88.60
63317;DHT22;49822;41.468;13.560;2023-04-24T07:37:27;16.30;88.30
63317;DHT22;49822;41.468;13.560;2023-04-24T07:39:54;16.50;87.60
63317;DHT22;49822;41.468;13.560;2023-04-24T07:42:20;16.70;88.50
63317;DHT22;49822;41.468;13.560;2023-04-24T07:44:48;16.80;88.10
63317;DHT22;49822;41.468;13.560;2023-04-24T07:47:14;16.70;87.30
63317;DHT22;49822;41.468;13.560;2023-04-24T07:49:43;16.80;87.30
63317;DHT22;49822;41.468;13.560;2023-04-24T07:52:09;16.80;86.90
63317;DHT22;49822;41.468;13.560;2023-04-24T07:54:36;16.80;87.00
63317;DHT22;49822;41.468;13.560;2023-04-24T07:57:03;16.80;86.80
63317;DHT22;49822;41.468;13.560;2023-04-24T07:59:31;16.80;87.30
63317;DHT22;49822;41.468;13.560;2023-04-24T08:01:58;16.60;88.40
63317;DHT22;49822;41.468;13.560;2023-04-24T08:04:24;16.20;88.40
63317;DHT22;49822;41.468;13.560;2023-04-24T08:06:51;16.00;89.40
63317;DHT22;49822;41.468;13.560;2023-04-24T08:09:17;15.90;90.40
63317;DHT22;49822;41.468;13.560;2023-04-24T08:11:44;16.20;90.60
63317;DHT22;49822;41.468;13.560;2023-04-24T08:14:11;16.20;90.10
63317;DHT22;49822;41.468;13.560;2023-04-24T08:16:38;16.30;89.70
63317;DHT22;49822;41.468;13.560;2023-04-24T08:19:05;16.30;89.40
63317;DHT22;49822;41.468;13.560;2023-04-24T08:21:31;16.20;89.10
63317;DHT22;49822;41.468;13.560;2023-04-24T08:23:57;16.40;89.70
63317;DHT22;49822;41.468;13.560;2023-04-24T08:26:24;16.60;90.00
63317;DHT22;49822;41.468;13.560;2023-04-24T08:28:51;16.70;90.30
63317;DHT22;49822;41.468;13.560;2023-04-24T08:31:17;16.80;89.70
63317;DHT22;49822;41.468;13.560;2023-04-24T08:33:43;17.00;89.60
63317;DHT22;49822;41.468;13.560;2023-04-24T08:36:11;17.20;89.80
63317;DHT22;49822;41.468;13.560;2023-04-24T08:38:37;17.40;89.00
63317;DHT22;49822;41.468;13.560;2023-04-24T08:41:04;17.50;88.80
63317;DHT22;49822;41.468;13.560;2023-04-24T08:43:33;17.80;88.10
63317;DHT22;49822;41.468;13.560;2023-04-24T08:46:04;18.10;88.70
63317;DHT22;49822;41.468;13.560;2023-04-24T08:48:30;18.40;86.90
63317;DHT22;49822;41.468;13.560;2023-04-24T08:50:58;18.60;86.50
63317;DHT22;49822;41.468;13.560;2023-04-24T08:53:25;18.90;85.80
63317;DHT22;49822;41.468;13.560;2023-04-24T08:55:51;19.00;85.80
63317;DHT22;49822;41.468;13.560;2023-04-24T08:58:19;18.90;85.10
63317;DHT22;49822;41.468;13.560;2023-04-24T09:00:46;18.90;85.60
63317;DHT22;49822;41.468;13.560;2023-04-24T09:03:17;19.00;87.10
63317;DHT22;49822;41.468;13.560;2023-04-24T09:05:47;19.10;87.20
63317;DHT22;49822;41.468;13.560;2023-04-24T09:08:17;19.20;86.40
63317;DHT22;49822;41.468;13.560;2023-04-24T09:10:44;19.20;85.90
63317;DHT22;49822;41.468;13.560;2023-04-24T09:13:11;19.30;86.20
63317;DHT22;49822;41.468;13.560;2023-04-24T09:15:42;19.40;85.00
63317;DHT22;49822;41.468;13.560;2023-04-24T09:18:09;19.40;85.20
63317;DHT22;49822;41.468;13.560;2023-04-24T09:20:35;19.40;85.50
63317;DHT22;49822;41.468;13.560;2023-04-24T09:23:21;19.40;85.40
63317;DHT22;49822;41.468;13.560;2023-04-24T09:25:54;19.00;85.40
63317;DHT22;49822;41.468;13.560;2023-04-24T09:28:26;19.00;86.10
63317;DHT22;49822;41.468;13.560;2023-04-24T09:31:12;19.10;86.30
63317;DHT22;49822;41.468;13.560;2023-04-24T09:33:39;19.10;86.80
63317;DHT22;49822;41.468;13.560;2023-04-24T09:36:11;19.20;85.70
63317;DHT22;49822;41.468;13.560;2023-04-24T09:38:43;19.20;85.70
63317;DHT22;49822;41.468;13.560;2023-04-24T09:41:13;19.20;85.40
63317;DHT22;49822;41.468;13.560;2023-04-24T09:43:39;19.20;85.20
63317;DHT22;49822;41.468;13.560;2023-04-24T09:46:07;19.30;84.40
63317;DHT22;49822;41.468;13.560;2023-04-24T09:48:37;19.40;84.70
63317;DHT22;49822;41.468;13.560;2023-04-24T09:51:06;19.40;84.50
63317;DHT22;49822;41.468;13.560;2023-04-24T09:53:46;19.40;84.50
63317;DHT22;49822;41.468;13.560;2023-04-24T09:56:15;19.50;83.90
63317;DHT22;49822;41.468;13.560;2023-04-24T09:58:42;19.40;83.80
63317;DHT22;49822;41.468;13.560;2023-04-24T10:01:09;19.40;83.70
63317;DHT22;49822;41.468;13.560;2023-04-24T10:03:35;19.50;83.80
63317;DHT22;49822;41.468;13.560;2023-04-24T10:06:02;19.60;82.90
63317;DHT22;49822;41.468;13.560;2023-04-24T10:08:35;19.70;83.50
63317;DHT22;49822;41.468;13.560;2023-04-24T10:11:02;19.80;81.50
63317;DHT22;49822;41.468;13.560;2023-04-24T10:13:28;19.50;79.80
63317;DHT22;49822;41.468;13.560;2023-04-24T10:15:56;19.50;80.60
63317;DHT22;49822;41.468;13.560;2023-04-24T10:18:25;19.50;80.10
63317;DHT22;49822;41.468;13.560;2023-04-24T10:20:52;19.60;80.00
63317;DHT22;49822;41.468;13.560;2023-04-24T10:23:20;19.50;78.30
63317;DHT22;49822;41.468;13.560;2023-04-24T10:25:48;19.50;78.20
63317;DHT22;49822;41.468;13.560;2023-04-24T10:28:15;19.30;77.70
63317;DHT22;49822;41.468;13.560;2023-04-24T10:30:44;19.10;78.60
63317;DHT22;49822;41.468;13.560;2023-04-24T10:33:12;19.10;80.10
63317;DHT22;49822;41.468;13.560;2023-04-24T10:35:42;18.90;78.40
63317;DHT22;49822;41.468;13.560;2023-04-24T10:38:18;18.60;79.50
63317;DHT22;49822;41.468;13.560;2023-04-24T10:40:47;19.10;77.90
63317;DHT22;49822;41.468;13.560;2023-04-24T10:43:17;19.50;77.70
63317;DHT22;49822;41.468;13.560;2023-04-24T10:46:04;19.60;76.70
63317;DHT22;49822;41.468;13.560;2023-04-24T10:48:33;19.80;77.50
63317;DHT22;49822;41.468;13.560;2023-04-24T10:50:59;19.90;76.80
63317;DHT22;49822;41.468;13.560;2023-04-24T10:53:29;19.60;76.30
63317;DHT22;49822;41.468;13.560;2023-04-24T10:56:06;19.50;76.50
63317;DHT22;49822;41.468;13.560;2023-04-24T10:58:50;19.20;77.20
63317;DHT22;49822;41.468;13.560;2023-04-24T11:01:31;19.30;77.00
63317;DHT22;49822;41.468;13.560;2023-04-24T11:04:02;19.30;77.10
63317;DHT22;49822;41.468;13.560;2023-04-24T11:06:37;19.10;77.80
63317;DHT22;49822;41.468;13.560;2023-04-24T11:09:08;19.00;77.70
63317;DHT22;49822;41.468;13.560;2023-04-24T11:11:37;19.00;77.80
63317;DHT22;49822;41.468;13.560;2023-04-24T11:14:05;19.20;77.80
63317;DHT22;49822;41.468;13.560;2023-04-24T11:16:55;19.20;77.70
63317;DHT22;49822;41.468;13.560;2023-04-24T11:19:25;19.30;77.30
63317;DHT22;49822;41.468;13.560;2023-04-24T11:22:00;19.30;76.90
63317;DHT22;49822;41.468;13.560;2023-04-24T11:30:40;19.10;77.90
63317;DHT22;49822;41.468;13.560;2023-04-24T11:33:08;19.20;78.20
63317;DHT22;49822;41.468;13.560;2023-04-24T11:35:36;18.90;78.20
63317;DHT22;49822;41.468;13.560;2023-04-24T11:38:06;19.00;77.30
63317;DHT22;49822;41.468;13.560;2023-04-24T11:40:33;19.10;77.30
63317;DHT22;49822;41.468;13.560;2023-04-24T11:43:00;19.60;78.00
63317;DHT22;49822;41.468;13.560;2023-04-24T11:45:29;19.90;76.80
63317;DHT22;49822;41.468;13.560;2023-04-24T11:47:58;20.00;75.30
63317;DHT22;49822;41.468;13.560;2023-04-24T11:50:26;20.30;75.70
63317;DHT22;49822;41.468;13.560;2023-04-24T11:52:54;20.00;72.10
63317;DHT22;49822;41.468;13.560;2023-04-24T11:57:49;20.00;69.30
63317;DHT22;49822;41.468;13.560;2023-04-24T12:00:20;19.80;68.50
63317;DHT22;49822;41.468;13.560;2023-04-24T12:02:50;20.00;70.70
63317;DHT22;49822;41.468;13.560;2023-04-24T12:07:47;20.10;69.40
63317;DHT22;49822;41.468;13.560;2023-04-24T12:10:14;20.30;70.90
63317;DHT22;49822;41.468;13.560;2023-04-24T12:12:40;20.20;70.10
63317;DHT22;49822;41.468;13.560;2023-04-24T12:15:08;20.10;69.00
63317;DHT22;49822;41.468;13.560;2023-04-24T12:17:35;20.30;70.40
63317;DHT22;49822;41.468;13.560;2023-04-24T12:20:07;20.30;72.00
63317;DHT22;49822;41.468;13.560;2023-04-24T12:22:47;19.90;69.30
63317;DHT22;49822;41.468;13.560;2023-04-24T12:25:17;19.90;70.10
63317;DHT22;49822;41.468;13.560;2023-04-24T12:27:44;20.00;69.60
63317;DHT22;49822;41.468;13.560;2023-04-24T12:30:21;19.80;69.80
63317;DHT22;49822;41.468;13.560;2023-04-24T12:32:48;19.90;68.70
63317;DHT22;49822;41.468;13.560;2023-04-24T12:35:23;20.10;68.90
63317;DHT22;49822;41.468;13.560;2023-04-24T12:37:50;20.30;68.90
63317;DHT22;49822;41.468;13.560;2023-04-24T12:40:17;20.00;70.00
63317;DHT22;49822;41.468;13.560;2023-04-24T12:42:47;20.00;69.30
63317;DHT22;49822;41.468;13.560;2023-04-24T12:45:14;20.10;69.90
63317;DHT22;49822;41.468;13.560;2023-04-24T12:47:41;20.10;70.80
63317;DHT22;49822;41.468;13.560;2023-04-24T12:50:08;19.90;70.40
63317;DHT22;49822;41.468;13.560;2023-04-24T12:52:36;20.00;70.60
63317;DHT22;49822;41.468;13.560;2023-04-24T12:55:03;19.90;71.90
63317;DHT22;49822;41.468;13.560;2023-04-24T12:57:32;19.70;72.20
63317;DHT22;49822;41.468;13.560;2023-04-24T12:59:59;20.00;72.00
63317;DHT22;49822;41.468;13.560;2023-04-24T13:02:26;20.20;71.00
63317;DHT22;49822;41.468;13.560;2023-04-24T13:04:53;20.20;70.90
63317;DHT22;49822;41.468;13.560;2023-04-24T13:07:19;20.00;72.10
63317;DHT22;49822;41.468;13.560;2023-04-24T13:09:47;20.50;71.50
63317;DHT22;49822;41.468;13.560;2023-04-24T13:12:13;20.40;71.10
63317;DHT22;49822;41.468;13.560;2023-04-24T13:14:40;20.80;70.30
63317;DHT22;49822;41.468;13.560;2023-04-24T13:17:06;20.60;70.90
63317;DHT22;49822;41.468;13.560;2023-04-24T13:19:41;20.70;70.40
63317;DHT22;49822;41.468;13.560;2023-04-24T13:22:09;20.10;71.40
63317;DHT22;49822;41.468;13.560;2023-04-24T13:24:35;19.70;72.20
63317;DHT22;49822;41.468;13.560;2023-04-24T13:27:01;20.20;71.80
63317;DHT22;49822;41.468;13.560;2023-04-24T13:29:28;20.40;69.00
63317;DHT22;49822;41.468;13.560;2023-04-24T13:31:54;20.80;70.00
63317;DHT22;49822;41.468;13.560;2023-04-24T13:34:24;20.80;70.10
63317;DHT22;49822;41.468;13.560;2023-04-24T13:36:53;20.80;71.30
63317;DHT22;49822;41.468;13.560;2023-04-24T13:39:20;21.10;71.80
63317;DHT22;49822;41.468;13.560;2023-04-24T13:41:46;20.90;70.40
63317;DHT22;49822;41.468;13.560;2023-04-24T13:44:16;20.70;71.20
63317;DHT22;49822;41.468;13.560;2023-04-24T13:46:43;21.00;69.70
63317;DHT22;49822;41.468;13.560;2023-04-24T13:49:12;21.10;69.80
63317;DHT22;49822;41.468;13.560;2023-04-24T13:51:38;20.90;70.90
63317;DHT22;49822;41.468;13.560;2023-04-24T13:54:04;21.10;71.60
63317;DHT22;49822;41.468;13.560;2023-04-24T13:56:31;20.80;70.80
63317;DHT22;49822;41.468;13.560;2023-04-24T13:58:57;20.30;72.80
63317;DHT22;49822;41.468;13.560;2023-04-24T14:01:23;20.50;72.70
63317;DHT22;49822;41.468;13.560;2023-04-24T14:03:51;20.50;71.10
63317;DHT22;49822;41.468;13.560;2023-04-24T14:06:19;20.60;72.00
63317;DHT22;49822;41.468;13.560;2023-04-24T14:08:46;20.90;72.90
63317;DHT22;49822;41.468;13.560;2023-04-24T14:11:12;20.60;71.30
63317;DHT22;49822;41.468;13.560;2023-04-24T14:13:40;20.50;73.20
63317;DHT22;49822;41.468;13.560;2023-04-24T14:16:07;20.50;71.90
63317;DHT22;49822;41.468;13.560;2023-04-24T14:18:33;20.50;72.80
63317;DHT22;49822;41.468;13.560;2023-04-24T14:20:59;20.60;72.30
63317;DHT22;49822;41.468;13.560;2023-04-24T14:23:27;20.70;72.60
63317;DHT22;49822;41.468;13.560;2023-04-24T14:25:53;20.90;71.40
63317;DHT22;49822;41.468;13.560;2023-04-24T14:28:20;20.70;72.80
63317;DHT22;49822;41.468;13.560;2023-04-24T14:30:47;20.30;71.20
63317;DHT22;49822;41.468;13.560;2023-04-24T14:33:15;20.40;72.70
63317;DHT22;49822;41.468;13.560;2023-04-24T14:35:41;20.50;71.40
63317;DHT22;49822;41.468;13.560;2023-04-24T14:38:10;20.00;71.90
63317;DHT22;49822;41.468;13.560;2023-04-24T14:40:37;20.10;71.80
63317;DHT22;49822;41.468;13.560;2023-04-24T14:43:04;20.00;72.90
63317;DHT22;49822;41.468;13.560;2023-04-24T14:45:31;19.60;73.20
63317;DHT22;49822;41.468;13.560;2023-04-24T14:47:57;19.90;72.80
63317;DHT22;49822;41.468;13.560;2023-04-24T14:50:24;19.70;73.00
63317;DHT22;49822;41.468;13.560;2023-04-24T14:52:54;19.70;72.90
63317;DHT22;49822;41.468;13.560;2023-04-24T14:55:24;19.90;72.60
63317;DHT22;49822;41.468;13.560;2023-04-24T14:57:52;20.00;73.50
63317;DHT22;49822;41.468;13.560;2023-04-24T15:00:18;19.90;72.90
63317;DHT22;49822;41.468;13.560;2023-04-24T15:02:46;19.80;72.80
63317;DHT22;49822;41.468;13.560;2023-04-24T15:05:12;19.90;72.60
63317;DHT22;49822;41.468;13.560;2023-04-24T15:07:38;19.80;73.10
63317;DHT22;49822;41.468;13.560;2023-04-24T15:10:32;20.00;72.90
63317;DHT22;49822;41.468;13.560;2023-04-24T15:13:02;20.20;72.00
63317;DHT22;49822;41.468;13.560;2023-04-24T15:15:28;20.00;72.10
63317;DHT22;49822;41.468;13.560;2023-04-24T15:17:54;20.00;72.30
63317;DHT22;49822;41.468;13.560;2023-04-24T15:20:21;20.10;72.40
63317;DHT22;49822;41.468;13.560;2023-04-24T15:22:47;20.00;72.50
63317;DHT22;49822;41.468;13.560;2023-04-24T15:25:13;20.10;72.80
63317;DHT22;49822;41.468;13.560;2023-04-24T15:27:42;20.00;73.30
63317;DHT22;49822;41.468;13.560;2023-04-24T15:30:09;19.90;73.60
63317;DHT22;49822;41.468;13.560;2023-04-24T15:32:37;19.90;73.40
63317;DHT22;49822;41.468;13.560;2023-04-24T15:35:04;19.70;73.70
63317;DHT22;49822;41.468;13.560;2023-04-24T15:37:31;19.70;74.40
63317;DHT22;49822;41.468;13.560;2023-04-24T15:39:58;19.30;75.10
63317;DHT22;49822;41.468;13.560;2023-04-24T15:42:27;19.50;73.50
63317;DHT22;49822;41.468;13.560;2023-04-24T15:44:54;19.30;75.10
63317;DHT22;49822;41.468;13.560;2023-04-24T15:47:20;19.50;73.90
63317;DHT22;49822;41.468;13.560;2023-04-24T15:49:46;19.50;74.00
63317;DHT22;49822;41.468;13.560;2023-04-24T15:52:12;19.30;74.90
63317;DHT22;49822;41.468;13.560;2023-04-24T15:54:39;19.10;74.90
63317;DHT22;49822;41.468;13.560;2023-04-24T15:57:06;19.30;73.30
63317;DHT22;49822;41.468;13.560;2023-04-24T15:59:33;19.30;73.40
63317;DHT22;49822;41.468;13.560;2023-04-24T16:01:59;19.30;73.70
63317;DHT22;49822;41.468;13.560;2023-04-24T16:04:25;19.20;74.00
63317;DHT22;49822;41.468;13.560;2023-04-24T16:06:51;19.10;73.40
63317;DHT22;49822;41.468;13.560;2023-04-24T16:09:18;19.00;74.70
63317;DHT22;49822;41.468;13.560;2023-04-24T16:11:43;19.00;75.00
63317;DHT22;49822;41.468;13.560;2023-04-24T16:14:10;19.10;74.90
63317;DHT22;49822;41.468;13.560;2023-04-24T16:16:36;19.20;74.60
63317;DHT22;49822;41.468;13.560;2023-04-24T16:19:02;19.20;74.70
63317;DHT22;49822;41.468;13.560;2023-04-24T16:21:27;19.10;73.80
63317;DHT22;49822;41.468;13.560;2023-04-24T16:23:54;19.40;74.10
63317;DHT22;49822;41.468;13.560;2023-04-24T16:26:20;19.10;74.80
63317;DHT22;49822;41.468;13.560;2023-04-24T16:28:46;19.20;74.50
63317;DHT22;49822;41.468;13.560;2023-04-24T16:31:12;19.30;74.10
63317;DHT22;49822;41.468;13.560;2023-04-24T16:33:39;19.10;74.90
63317;DHT22;49822;41.468;13.560;2023-04-24T16:36:05;18.80;75.70
63317;DHT22;49822;41.468;13.560;2023-04-24T16:38:31;18.90;75.60
63317;DHT22;49822;41.468;13.560;2023-04-24T16:40:57;19.50;74.90
63317;DHT22;49822;41.468;13.560;2023-04-24T16:43:23;19.90;74.20
63317;DHT22;49822;41.468;13.560;2023-04-24T16:45:50;20.70;72.30
63317;DHT22;49822;41.468;13.560;2023-04-24T16:48:18;21.00;71.40
63317;DHT22;49822;41.468;13.560;2023-04-24T16:50:44;19.90;74.20
63317;DHT22;49822;41.468;13.560;2023-04-24T16:53:11;19.70;74.30
63317;DHT22;49822;41.468;13.560;2023-04-24T16:55:38;19.40;75.00
63317;DHT22;49822;41.468;13.560;2023-04-24T16:58:05;18.90;75.70
63317;DHT22;49822;41.468;13.560;2023-04-24T17:00:32;18.20;76.80
63317;DHT22;49822;41.468;13.560;2023-04-24T17:03:02;18.10;77.40
63317;DHT22;49822;41.468;13.560;2023-04-24T17:05:28;17.70;78.30
63317;DHT22;49822;41.468;13.560;2023-04-24T17:07:54;17.60;79.00
63317;DHT22;49822;41.468;13.560;2023-04-24T17:10:20;17.40;79.30
63317;DHT22;49822;41.468;13.560;2023-04-24T17:12:46;17.40;79.70
63317;DHT22;49822;41.468;13.560;2023-04-24T17:15:13;17.20;80.00
63317;DHT22;49822;41.468;13.560;2023-04-24T17:17:39;17.30;80.30
63317;DHT22;49822;41.468;13.560;2023-04-24T17:20:09;17.10;80.80
63317;DHT22;49822;41.468;13.560;2023-04-24T17:22:36;17.10;80.70
63317;DHT22;49822;41.468;13.560;2023-04-24T17:25:02;17.10;80.30
63317;DHT22;49822;41.468;13.560;2023-04-24T17:27:29;17.00;80.30
63317;DHT22;49822;41.468;13.560;2023-04-24T17:29:55;17.00;80.50
63317;DHT22;49822;41.468;13.560;2023-04-24T17:32:23;16.90;80.30
63317;DHT22;49822;41.468;13.560;2023-04-24T17:34:50;16.90;80.50
63317;DHT22;49822;41.468;13.560;2023-04-24T17:37:15;16.90;80.30
63317;DHT22;49822;41.468;13.560;2023-04-24T17:39:44;16.90;80.80
63317;DHT22;49822;41.468;13.560;2023-04-24T17:42:10;16.90;80.50
63317;DHT22;49822;41.468;13.560;2023-04-24T17:44:36;16.80;80.90
63317;DHT22;49822;41.468;13.560;2023-04-24T17:47:02;16.70;80.40
63317;DHT22;49822;41.468;13.560;2023-04-24T17:49:29;16.60;80.60
63317;DHT22;49822;41.468;13.560;2023-04-24T17:51:56;16.80;79.90
63317;DHT22;49822;41.468;13.560;2023-04-24T17:54:22;16.70;80.30
63317;DHT22;49822;41.468;13.560;2023-04-24T17:56:48;16.70;80.50
63317;DHT22;49822;41.468;13.560;2023-04-24T17:59:14;16.70;80.30
63317;DHT22;49822;41.468;13.560;2023-04-24T18:01:41;16.60;80.80
63317;DHT22;49822;41.468;13.560;2023-04-24T18:04:07;16.60;80.30
63317;DHT22;49822;41.468;13.560;2023-04-24T18:06:33;16.50;80.20
63317;DHT22;49822;41.468;13.560;2023-04-24T18:08:59;16.50;80.90
63317;DHT22;49822;41.468;13.560;2023-04-24T18:11:25;16.50;80.90
63317;DHT22;49822;41.468;13.560;2023-04-24T18:13:53;16.50;81.10
63317;DHT22;49822;41.468;13.560;2023-04-24T18:16:19;16.50;81.40
63317;DHT22;49822;41.468;13.560;2023-04-24T18:18:45;16.40;82.00
63317;DHT22;49822;41.468;13.560;2023-04-24T18:21:11;16.30;82.40
63317;DHT22;49822;41.468;13.560;2023-04-24T18:23:37;16.20;82.00
63317;DHT22;49822;41.468;13.560;2023-04-24T18:26:03;16.10;82.70
63317;DHT22;49822;41.468;13.560;2023-04-24T18:28:29;16.10;82.00
63317;DHT22;49822;41.468;13.560;2023-04-24T18:31:02;16.10;80.80
63317;DHT22;49822;41.468;13.560;2023-04-24T18:33:28;16.40;80.00
63317;DHT22;49822;41.468;13.560;2023-04-24T18:35:54;16.30;80.60
63317;DHT22;49822;41.468;13.560;2023-04-24T18:38:21;16.30;80.10
63317;DHT22;49822;41.468;13.560;2023-04-24T18:40:47;16.30;80.10
63317;DHT22;49822;41.468;13.560;2023-04-24T18:43:13;16.30;79.50
63317;DHT22;49822;41.468;13.560;2023-04-24T18:45:41;16.40;78.50
63317;DHT22;49822;41.468;13.560;2023-04-24T18:48:07;16.30;79.10
63317;DHT22;49822;41.468;13.560;2023-04-24T18:50:33;16.20;79.60
63317;DHT22;49822;41.468;13.560;2023-04-24T18:52:59;16.10;80.80
63317;DHT22;49822;41.468;13.560;2023-04-24T18:55:25;16.00;81.30
63317;DHT22;49822;41.468;13.560;2023-04-24T18:57:51;16.10;82.00
63317;DHT22;49822;41.468;13.560;2023-04-24T19:00:18;16.00;81.70
63317;DHT22;49822;41.468;13.560;2023-04-24T19:02:47;16.00;81.30
63317;DHT22;49822;41.468;13.560;2023-04-24T19:05:13;16.00;81.40
63317;DHT22;49822;41.468;13.560;2023-04-24T19:07:39;16.00;80.80
63317;DHT22;49822;41.468;13.560;2023-04-24T19:10:07;15.90;80.60
63317;DHT22;49822;41.468;13.560;2023-04-24T19:12:34;16.00;81.30
63317;DHT22;49822;41.468;13.560;2023-04-24T19:15:00;15.90;81.60
63317;DHT22;49822;41.468;13.560;2023-04-24T19:17:26;15.90;81.70
63317;DHT22;49822;41.468;13.560;2023-04-24T19:19:53;15.80;82.70
63317;DHT22;49822;41.468;13.560;2023-04-24T19:22:20;15.90;82.20
63317;DHT22;49822;41.468;13.560;2023-04-24T19:24:46;16.00;82.50
63317;DHT22;49822;41.468;13.560;2023-04-24T19:27:12;16.00;82.50
63317;DHT22;49822;41.468;13.560;2023-04-24T19:29:38;15.90;83.00
63317;DHT22;49822;41.468;13.560;2023-04-24T19:32:06;15.90;83.10
63317;DHT22;49822;41.468;13.560;2023-04-24T19:34:35;16.00;82.30
63317;DHT22;49822;41.468;13.560;2023-04-24T19:37:01;16.00;82.40
63317;DHT22;49822;41.468;13.560;2023-04-24T19:39:27;15.80;82.60
63317;DHT22;49822;41.468;13.560;2023-04-24T19:41:53;15.80;82.40
63317;DHT22;49822;41.468;13.560;2023-04-24T19:44:21;15.80;82.00
63317;DHT22;49822;41.468;13.560;2023-04-24T19:46:47;15.90;81.70
63317;DHT22;49822;41.468;13.560;2023-04-24T19:49:14;15.90;81.50
63317;DHT22;49822;41.468;13.560;2023-04-24T19:51:40;16.00;81.80
63317;DHT22;49822;41.468;13.560;2023-04-24T19:54:06;16.00;81.60
63317;DHT22;49822;41.468;13.560;2023-04-24T19:56:33;16.00;81.20
63317;DHT22;49822;41.468;13.560;2023-04-24T19:58:59;16.00;81.10
63317;DHT22;49822;41.468;13.560;2023-04-24T20:01:26;16.00;81.50
63317;DHT22;49822;41.468;13.560;2023-04-24T20:03:52;16.10;81.40
63317;DHT22;49822;41.468;13.560;2023-04-24T20:06:18;16.00;81.20
63317;DHT22;49822;41.468;13.560;2023-04-24T20:08:44;15.90;80.20
63317;DHT22;49822;41.468;13.560;2023-04-24T20:11:12;15.90;80.90
63317;DHT22;49822;41.468;13.560;2023-04-24T20:13:38;15.80;80.60
63317;DHT22;49822;41.468;13.560;2023-04-24T20:16:05;15.80;80.70
63317;DHT22;49822;41.468;13.560;2023-04-24T20:18:32;15.70;80.20
63317;DHT22;49822;41.468;13.560;2023-04-24T20:20:59;15.60;80.90
63317;DHT22;49822;41.468;13.560;2023-04-24T20:23:26;15.30;81.90
63317;DHT22;49822;41.468;13.560;2023-04-24T20:25:52;15.30;82.50
63317;DHT22;49822;41.468;13.560;2023-04-24T20:28:25;15.30;81.70
63317;DHT22;49822;41.468;13.560;2023-04-24T20:30:52;15.30;81.90
63317;DHT22;49822;41.468;13.560;2023-04-24T20:33:19;15.20;82.00
63317;DHT22;49822;41.468;13.560;2023-04-24T20:35:45;15.10;82.00
63317;DHT22;49822;41.468;13.560;2023-04-24T20:38:12;15.00;82.80
63317;DHT22;49822;41.468;13.560;2023-04-24T20:40:40;15.00;82.50
63317;DHT22;49822;41.468;13.560;2023-04-24T20:43:07;15.10;82.50
63317;DHT22;49822;41.468;13.560;2023-04-24T20:45:33;15.10;82.40
63317;DHT22;49822;41.468;13.560;2023-04-24T20:48:02;15.10;81.90
63317;DHT22;49822;41.468;13.560;2023-04-24T20:50:45;15.00;82.00
63317;DHT22;49822;41.468;13.560;2023-04-24T20:53:22;15.00;82.00
63317;DHT22;49822;41.468;13.560;2023-04-24T20:55:48;14.70;82.70
63317;DHT22;49822;41.468;13.560;2023-04-24T20:58:15;14.50;83.60
63317;DHT22;49822;41.468;13.560;2023-04-24T21:00:45;13.80;85.50
63317;DHT22;49822;41.468;13.560;2023-04-24T21:03:12;13.70;85.90
63317;DHT22;49822;41.468;13.560;2023-04-24T21:05:39;13.70;85.50
63317;DHT22;49822;41.468;13.560;2023-04-24T21:08:05;13.70;85.60
63317;DHT22;49822;41.468;13.560;2023-04-24T21:10:32;13.80;85.60
63317;DHT22;49822;41.468;13.560;2023-04-24T21:12:58;13.90;85.30
63317;DHT22;49822;41.468;13.560;2023-04-24T21:15:27;14.10;85.00
63317;DHT22;49822;41.468;13.560;2023-04-24T21:17:54;14.20;84.90
63317;DHT22;49822;41.468;13.560;2023-04-24T21:20:20;14.30;84.60
63317;DHT22;49822;41.468;13.560;2023-04-24T21:22:46;14.30;83.90
63317;DHT22;49822;41.468;13.560;2023-04-24T21:25:12;14.30;83.40
63317;DHT22;49822;41.468;13.560;2023-04-24T21:27:40;14.20;83.50
63317;DHT22;49822;41.468;13.560;2023-04-24T21:30:07;14.20;83.70
63317;DHT22;49822;41.468;13.560;2023-04-24T21:32:33;14.20;83.40
63317;DHT22;49822;41.468;13.560;2023-04-24T21:34:59;14.20;83.70
63317;DHT22;49822;41.468;13.560;2023-04-24T21:37:26;14.30;83.80
63317;DHT22;49822;41.468;13.560;2023-04-24T21:39:52;14.20;83.60
63317;DHT22;49822;41.468;13.560;2023-04-24T21:42:18;13.90;83.50
63317;DHT22;49822;41.468;13.560;2023-04-24T21:44:44;13.40;84.70
63317;DHT22;49822;41.468;13.560;2023-04-24T21:47:10;13.30;85.70
63317;DHT22;49822;41.468;13.560;2023-04-24T21:49:36;13.50;85.70
63317;DHT22;49822;41.468;13.560;2023-04-24T21:52:02;13.20;86.40
63317;DHT22;49822;41.468;13.560;2023-04-24T21:54:28;12.70;86.90
63317;DHT22;49822;41.468;13.560;2023-04-24T21:56:54;12.70;87.70
63317;DHT22;49822;41.468;13.560;2023-04-24T21:59:20;12.80;88.10
63317;DHT22;49822;41.468;13.560;2023-04-24T22:01:47;12.70;88.80